sensor_id;sensor_type;location;lat;lon;timestamp;pressure;altitude;pressure_sealevel;temperature;humidity
46846;BME280;33947;46.804;134.252;2023-05-23T00:01:40;100229.44;;;26.56;35.23
46846;BME280;33947;46.804;134.252;2023-05-23T00:04:45;100209.41;;;26.93;34.56
46846;BME280;33947;46.804;134.252;2023-05-23T00:07:49;100236.06;;;26.25;36.02
46846;BME280;33947;46.804;134.252;2023-05-23T00:10:54;100210.06;;;26.77;34.86
46846;BME280;33947;46.804;134.252;2023-05-23T00:13:58;100225.44;;;26.96;34.44
46846;BME280;33947;46.804;134.252;2023-05-23T00:17:03;100201.09;;;26.49;34.32
46846;BME280;33947;46.804;134.252;2023-05-23T00:20:08;100200.56;;;26.81;33.73
46846;BME280;33947;46.804;134.252;2023-05-23T00:23:14;100218.59;;;27.10;33.91
46846;BME280;33947;46.804;134.252;2023-05-23T00:26:22;100212.50;;;27.16;33.09
46846;BME280;33947;46.804;134.252;2023-05-23T00:29:26;100226.81;;;27.19;33.61
46846;BME280;33947;46.804;134.252;2023-05-23T00:32:30;100213.88;;;27.21;34.08
46846;BME280;33947;46.804;134.252;2023-05-23T00:35:34;100222.09;;;27.73;33.30
46846;BME280;33947;46.804;134.252;2023-05-23T00:38:39;100217.25;;;27.94;32.88
46846;BME280;33947;46.804;134.252;2023-05-23T00:41:47;100229.38;;;27.91;33.13
46846;BME280;33947;46.804;134.252;2023-05-23T00:44:55;100176.16;;;27.61;32.84
46846;BME280;33947;46.804;134.252;2023-05-23T00:47:59;100207.19;;;28.21;32.20
46846;BME280;33947;46.804;134.252;2023-05-23T00:51:04;100233.06;;;28.59;32.28
46846;BME280;33947;46.804;134.252;2023-05-23T00:54:09;100228.03;;;28.38;31.91
46846;BME280;33947;46.804;134.252;2023-05-23T00:57:13;100239.53;;;28.50;31.94
46846;BME280;33947;46.804;134.252;2023-05-23T01:00:19;100212.19;;;28.50;31.89
46846;BME280;33947;46.804;134.252;2023-05-23T01:03:23;100229.47;;;28.51;31.17
46846;BME280;33947;46.804;134.252;2023-05-23T01:06:31;100224.84;;;28.51;31.23
46846;BME280;33947;46.804;134.252;2023-05-23T01:09:36;100215.47;;;28.70;31.50
46846;BME280;33947;46.804;134.252;2023-05-23T01:16:27;100192.81;;;29.20;30.41
46846;BME280;33947;46.804;134.252;2023-05-23T01:29:46;100133.16;;;29.88;28.31
46846;BME280;33947;46.804;134.252;2023-05-23T01:32:55;100192.63;;;30.11;29.22
46846;BME280;33947;46.804;134.252;2023-05-23T01:36:01;100188.38;;;30.40;29.33
46846;BME280;33947;46.804;134.252;2023-05-23T01:39:06;100177.81;;;30.28;29.13
46846;BME280;33947;46.804;134.252;2023-05-23T01:42:11;100170.97;;;30.56;29.23
46846;BME280;33947;46.804;134.252;2023-05-23T01:45:16;100157.69;;;30.44;29.43
46846;BME280;33947;46.804;134.252;2023-05-23T01:48:21;100157.66;;;30.76;29.01
46846;BME280;33947;46.804;134.252;2023-05-23T01:51:26;100146.66;;;30.29;28.32
46846;BME280;33947;46.804;134.252;2023-05-23T01:54:31;100170.16;;;30.47;27.40
46846;BME280;33947;46.804;134.252;2023-05-23T01:57:38;100164.97;;;29.89;28.67
46846;BME280;33947;46.804;134.252;2023-05-23T02:00:42;100147.72;;;28.06;31.22
46846;BME280;33947;46.804;134.252;2023-05-23T02:03:47;100135.47;;;27.14;32.41
46846;BME280;33947;46.804;134.252;2023-05-23T02:06:51;100141.63;;;27.78;31.03
46846;BME280;33947;46.804;134.252;2023-05-23T02:09:55;100114.78;;;27.38;31.14
46846;BME280;33947;46.804;134.252;2023-05-23T02:12:59;100132.63;;;27.51;31.02
46846;BME280;33947;46.804;134.252;2023-05-23T02:16:04;100133.47;;;27.51;31.55
46846;BME280;33947;46.804;134.252;2023-05-23T02:19:08;100145.09;;;27.88;31.14
46846;BME280;33947;46.804;134.252;2023-05-23T02:22:13;100138.75;;;27.26;32.83
46846;BME280;33947;46.804;134.252;2023-05-23T02:25:17;100121.38;;;27.01;32.56
46846;BME280;33947;46.804;134.252;2023-05-23T02:28:22;100093.75;;;26.96;31.50
46846;BME280;33947;46.804;134.252;2023-05-23T02:31:26;100109.13;;;27.05;30.59
46846;BME280;33947;46.804;134.252;2023-05-23T02:34:30;100106.16;;;26.90;30.58
46846;BME280;33947;46.804;134.252;2023-05-23T02:37:35;100110.59;;;26.91;29.92
46846;BME280;33947;46.804;134.252;2023-05-23T02:40:39;100111.44;;;26.92;30.85
46846;BME280;33947;46.804;134.252;2023-05-23T02:43:45;100119.19;;;27.31;31.59
46846;BME280;33947;46.804;134.252;2023-05-23T02:46:51;100105.59;;;26.86;32.41
46846;BME280;33947;46.804;134.252;2023-05-23T02:49:55;100105.13;;;26.73;31.84
46846;BME280;33947;46.804;134.252;2023-05-23T02:53:03;100106.75;;;26.29;32.90
46846;BME280;33947;46.804;134.252;2023-05-23T02:56:08;100096.47;;;26.78;31.97
46846;BME280;33947;46.804;134.252;2023-05-23T02:59:15;100099.78;;;26.63;32.76
46846;BME280;33947;46.804;134.252;2023-05-23T03:02:20;100079.16;;;26.42;32.73
46846;BME280;33947;46.804;134.252;2023-05-23T03:05:24;100093.16;;;25.83;32.43
46846;BME280;33947;46.804;134.252;2023-05-23T03:08:29;100081.81;;;26.16;32.76
46846;BME280;33947;46.804;134.252;2023-05-23T03:11:33;100067.47;;;26.14;33.31
46846;BME280;33947;46.804;134.252;2023-05-23T03:14:40;100069.47;;;25.94;32.17
46846;BME280;33947;46.804;134.252;2023-05-23T03:17:44;100081.84;;;26.06;31.13
46846;BME280;33947;46.804;134.252;2023-05-23T03:20:51;100064.09;;;26.02;31.99
46846;BME280;33947;46.804;134.252;2023-05-23T03:23:58;100073.41;;;25.81;30.61
46846;BME280;33947;46.804;134.252;2023-05-23T03:27:04;100062.53;;;25.53;31.78
46846;BME280;33947;46.804;134.252;2023-05-23T03:30:09;100068.44;;;25.39;31.67
46846;BME280;33947;46.804;134.252;2023-05-23T03:33:13;100071.59;;;25.34;31.95
46846;BME280;33947;46.804;134.252;2023-05-23T03:36:18;100061.47;;;25.26;32.31
46846;BME280;33947;46.804;134.252;2023-05-23T03:39:22;100039.72;;;25.26;32.35
46846;BME280;33947;46.804;134.252;2023-05-23T03:42:27;100043.44;;;25.25;30.92
46846;BME280;33947;46.804;134.252;2023-05-23T03:45:32;100045.75;;;24.53;31.34
46846;BME280;33947;46.804;134.252;2023-05-23T03:48:40;100050.97;;;25.04;32.15
46846;BME280;33947;46.804;134.252;2023-05-23T03:51:45;100020.00;;;24.87;32.90
46846;BME280;33947;46.804;134.252;2023-05-23T03:54:51;100016.84;;;24.71;32.96
46846;BME280;33947;46.804;134.252;2023-05-23T03:57:56;99992.00;;;24.66;33.33
46846;BME280;33947;46.804;134.252;2023-05-23T04:01:25;99936.44;;;24.51;32.20
46846;BME280;33947;46.804;134.252;2023-05-23T04:05:45;99995.63;;;24.47;34.18
46846;BME280;33947;46.804;134.252;2023-05-23T04:09:05;100000.56;;;24.62;33.32
46846;BME280;33947;46.804;134.252;2023-05-23T04:12:17;100023.75;;;24.76;33.74
46846;BME280;33947;46.804;134.252;2023-05-23T04:15:21;100017.84;;;24.80;35.14
46846;BME280;33947;46.804;134.252;2023-05-23T04:18:37;100000.84;;;24.78;33.92
46846;BME280;33947;46.804;134.252;2023-05-23T04:21:50;100004.72;;;24.85;33.80
46846;BME280;33947;46.804;134.252;2023-05-23T04:25:06;99997.44;;;24.56;33.35
46846;BME280;33947;46.804;134.252;2023-05-23T04:28:30;99999.44;;;24.74;32.86
46846;BME280;33947;46.804;134.252;2023-05-23T04:31:46;99991.16;;;24.76;33.13
46846;BME280;33947;46.804;134.252;2023-05-23T04:35:00;100002.81;;;24.86;32.97
46846;BME280;33947;46.804;134.252;2023-05-23T04:38:19;99995.19;;;24.99;32.62
46846;BME280;33947;46.804;134.252;2023-05-23T04:41:35;99968.78;;;24.92;32.81
46846;BME280;33947;46.804;134.252;2023-05-23T04:44:47;99927.19;;;24.34;31.87
46846;BME280;33947;46.804;134.252;2023-05-23T04:47:57;99977.41;;;24.67;32.70
46846;BME280;33947;46.804;134.252;2023-05-23T04:51:22;99982.38;;;24.72;32.66
46846;BME280;33947;46.804;134.252;2023-05-23T04:54:48;99978.41;;;24.76;32.60
46846;BME280;33947;46.804;134.252;2023-05-23T04:58:04;99972.66;;;24.79;32.53
46846;BME280;33947;46.804;134.252;2023-05-23T05:01:11;99973.66;;;24.88;32.40
46846;BME280;33947;46.804;134.252;2023-05-23T05:04:18;99937.69;;;24.66;31.93
46846;BME280;33947;46.804;134.252;2023-05-23T05:07:23;99966.81;;;24.84;31.18
46846;BME280;33947;46.804;134.252;2023-05-23T05:10:27;99964.16;;;25.02;31.97
46846;BME280;33947;46.804;134.252;2023-05-23T05:13:31;99972.41;;;25.10;32.39
46846;BME280;33947;46.804;134.252;2023-05-23T05:16:36;99961.75;;;24.51;32.50
46846;BME280;33947;46.804;134.252;2023-05-23T05:19:40;99978.03;;;24.51;33.44
46846;BME280;33947;46.804;134.252;2023-05-23T05:22:44;99960.16;;;24.39;33.61
46846;BME280;33947;46.804;134.252;2023-05-23T05:25:51;99932.06;;;24.30;33.95
46846;BME280;33947;46.804;134.252;2023-05-23T05:28:56;99981.28;;;24.65;34.45
46846;BME280;33947;46.804;134.252;2023-05-23T05:32:01;99979.69;;;24.82;34.14
46846;BME280;33947;46.804;134.252;2023-05-23T05:35:06;99967.28;;;25.07;34.12
46846;BME280;33947;46.804;134.252;2023-05-23T05:38:11;99949.28;;;24.49;33.89
46846;BME280;33947;46.804;134.252;2023-05-23T05:41:15;99975.50;;;24.10;34.62
46846;BME280;33947;46.804;134.252;2023-05-23T05:44:23;99969.31;;;23.69;34.61
46846;BME280;33947;46.804;134.252;2023-05-23T05:47:27;99937.38;;;23.22;34.72
46846;BME280;33947;46.804;134.252;2023-05-23T05:50:33;99958.59;;;23.17;34.12
46846;BME280;33947;46.804;134.252;2023-05-23T05:53:38;99959.00;;;22.71;34.62
46846;BME280;33947;46.804;134.252;2023-05-23T05:56:42;99936.34;;;22.72;33.90
46846;BME280;33947;46.804;134.252;2023-05-23T05:59:46;99932.56;;;22.63;34.02
46846;BME280;33947;46.804;134.252;2023-05-23T06:02:50;99920.91;;;22.63;34.25
46846;BME280;33947;46.804;134.252;2023-05-23T06:06:05;99890.81;;;22.35;33.37
46846;BME280;33947;46.804;134.252;2023-05-23T06:09:13;99914.34;;;22.65;33.88
46846;BME280;33947;46.804;134.252;2023-05-23T06:12:19;99927.63;;;22.68;33.41
46846;BME280;33947;46.804;134.252;2023-05-23T06:15:23;99931.22;;;22.48;32.95
46846;BME280;33947;46.804;134.252;2023-05-23T06:18:28;99947.59;;;22.46;33.59
46846;BME280;33947;46.804;134.252;2023-05-23T06:21:32;99877.56;;;21.89;33.70
46846;BME280;33947;46.804;134.252;2023-05-23T06:24:39;99932.56;;;22.42;33.87
46846;BME280;33947;46.804;134.252;2023-05-23T06:27:44;99912.13;;;22.49;33.26
46846;BME280;33947;46.804;134.252;2023-05-23T06:30:48;99937.19;;;22.30;34.08
46846;BME280;33947;46.804;134.252;2023-05-23T06:33:53;99933.91;;;22.05;35.31
46846;BME280;33947;46.804;134.252;2023-05-23T06:36:57;99906.88;;;22.05;34.10
46846;BME280;33947;46.804;134.252;2023-05-23T06:40:01;99913.25;;;21.83;34.69
46846;BME280;33947;46.804;134.252;2023-05-23T06:43:06;99895.09;;;21.62;35.20
46846;BME280;33947;46.804;134.252;2023-05-23T06:46:18;99911.59;;;21.59;35.44
46846;BME280;33947;46.804;134.252;2023-05-23T06:49:24;99917.25;;;21.56;35.79
46846;BME280;33947;46.804;134.252;2023-05-23T06:52:28;99900.31;;;21.54;35.48
46846;BME280;33947;46.804;134.252;2023-05-23T06:55:33;99892.25;;;21.43;36.34
46846;BME280;33947;46.804;134.252;2023-05-23T06:58:39;99859.34;;;20.93;37.59
46846;BME280;33947;46.804;134.252;2023-05-23T07:01:46;99870.75;;;20.86;37.82
46846;BME280;33947;46.804;134.252;2023-05-23T07:04:50;99905.56;;;20.77;38.19
46846;BME280;33947;46.804;134.252;2023-05-23T07:08:14;99915.88;;;20.95;38.04
46846;BME280;33947;46.804;134.252;2023-05-23T07:11:32;99919.06;;;21.11;38.42
46846;BME280;33947;46.804;134.252;2023-05-23T07:14:38;99904.31;;;21.27;38.73
46846;BME280;33947;46.804;134.252;2023-05-23T07:17:44;99903.25;;;21.51;38.49
46846;BME280;33947;46.804;134.252;2023-05-23T07:20:48;99908.84;;;21.71;38.20
46846;BME280;33947;46.804;134.252;2023-05-23T07:23:54;99887.50;;;21.67;38.51
46846;BME280;33947;46.804;134.252;2023-05-23T07:26:58;99901.72;;;21.81;38.71
46846;BME280;33947;46.804;134.252;2023-05-23T07:30:04;99891.09;;;21.89;38.93
46846;BME280;33947;46.804;134.252;2023-05-23T07:33:11;99884.97;;;21.87;39.66
46846;BME280;33947;46.804;134.252;2023-05-23T07:36:19;99889.19;;;21.80;40.09
46846;BME280;33947;46.804;134.252;2023-05-23T07:39:25;99851.25;;;21.59;39.89
46846;BME280;33947;46.804;134.252;2023-05-23T07:42:32;99876.16;;;21.74;39.99
46846;BME280;33947;46.804;134.252;2023-05-23T07:45:36;99881.53;;;21.85;39.91
46846;BME280;33947;46.804;134.252;2023-05-23T07:48:43;99861.66;;;21.75;39.12
46846;BME280;33947;46.804;134.252;2023-05-23T07:51:48;99873.28;;;21.87;38.92
46846;BME280;33947;46.804;134.252;2023-05-23T07:54:52;99873.00;;;21.90;38.98
46846;BME280;33947;46.804;134.252;2023-05-23T07:57:56;99845.16;;;21.78;38.66
46846;BME280;33947;46.804;134.252;2023-05-23T08:01:04;99865.88;;;21.89;38.62
46846;BME280;33947;46.804;134.252;2023-05-23T08:04:27;99865.63;;;21.92;38.42
46846;BME280;33947;46.804;134.252;2023-05-23T08:07:31;99870.97;;;21.82;38.35
46846;BME280;33947;46.804;134.252;2023-05-23T08:10:38;99880.31;;;21.78;38.38
46846;BME280;33947;46.804;134.252;2023-05-23T08:17:35;99868.66;;;21.77;37.92
46846;BME280;33947;46.804;134.252;2023-05-23T08:21:56;99737.22;;;20.90;37.94
46846;BME280;33947;46.804;134.252;2023-05-23T08:25:48;99802.78;;;21.24;38.08
46846;BME280;33947;46.804;134.252;2023-05-23T08:29:13;99847.25;;;21.53;38.25
46846;BME280;33947;46.804;134.252;2023-05-23T08:32:21;99871.28;;;21.67;38.32
46846;BME280;33947;46.804;134.252;2023-05-23T08:35:25;99823.72;;;21.32;38.31
46846;BME280;33947;46.804;134.252;2023-05-23T08:38:31;99859.03;;;21.52;38.56
46846;BME280;33947;46.804;134.252;2023-05-23T08:41:50;99859.50;;;21.57;38.86
46846;BME280;33947;46.804;134.252;2023-05-23T08:44:55;99866.88;;;21.55;39.36
46846;BME280;33947;46.804;134.252;2023-05-23T08:48:07;99864.56;;;21.50;39.79
46846;BME280;33947;46.804;134.252;2023-05-23T08:51:24;99863.69;;;21.17;40.33
46846;BME280;33947;46.804;134.252;2023-05-23T08:54:32;99875.78;;;21.34;40.18
46846;BME280;33947;46.804;134.252;2023-05-23T08:57:38;99877.75;;;21.44;40.31
46846;BME280;33947;46.804;134.252;2023-05-23T09:01:14;99853.75;;;21.18;41.09
46846;BME280;33947;46.804;134.252;2023-05-23T09:04:24;99876.81;;;21.54;41.34
46846;BME280;33947;46.804;134.252;2023-05-23T09:07:33;99867.53;;;21.47;41.29
46846;BME280;33947;46.804;134.252;2023-05-23T09:10:38;99886.06;;;21.52;41.16
46846;BME280;33947;46.804;134.252;2023-05-23T09:13:51;99885.59;;;21.47;41.89
46846;BME280;33947;46.804;134.252;2023-05-23T09:17:00;99866.13;;;21.32;42.18
46846;BME280;33947;46.804;134.252;2023-05-23T09:20:15;99876.91;;;21.32;42.89
46846;BME280;33947;46.804;134.252;2023-05-23T09:23:33;99885.13;;;21.30;43.27
46846;BME280;33947;46.804;134.252;2023-05-23T09:26:38;99868.59;;;21.12;43.16
46846;BME280;33947;46.804;134.252;2023-05-23T09:30:08;99891.59;;;21.06;44.38
46846;BME280;33947;46.804;134.252;2023-05-23T09:33:13;99865.59;;;20.82;44.69
46846;BME280;33947;46.804;134.252;2023-05-23T09:36:18;99894.75;;;20.54;47.40
46846;BME280;33947;46.804;134.252;2023-05-23T09:39:22;99892.06;;;20.54;45.77
46846;BME280;33947;46.804;134.252;2023-05-23T09:42:31;99837.09;;;20.21;45.66
46846;BME280;33947;46.804;134.252;2023-05-23T09:45:40;99883.47;;;20.49;45.72
46846;BME280;33947;46.804;134.252;2023-05-23T09:48:51;99849.75;;;20.09;46.98
46846;BME280;33947;46.804;134.252;2023-05-23T09:51:57;99884.41;;;20.14;47.74
46846;BME280;33947;46.804;134.252;2023-05-23T09:55:01;99905.16;;;19.89;48.27
46846;BME280;33947;46.804;134.252;2023-05-23T09:58:07;99894.50;;;19.88;48.23
46846;BME280;33947;46.804;134.252;2023-05-23T10:01:12;99912.97;;;19.57;49.94
46846;BME280;33947;46.804;134.252;2023-05-23T10:04:20;99904.09;;;19.43;50.66
46846;BME280;33947;46.804;134.252;2023-05-23T10:07:28;99914.50;;;19.23;51.29
46846;BME280;33947;46.804;134.252;2023-05-23T10:10:51;99921.00;;;19.21;51.50
46846;BME280;33947;46.804;134.252;2023-05-23T10:14:09;99872.09;;;18.64;53.23
46846;BME280;33947;46.804;134.252;2023-05-23T10:17:20;99902.34;;;18.68;53.02
46846;BME280;33947;46.804;134.252;2023-05-23T10:20:28;99899.34;;;18.33;54.37
46846;BME280;33947;46.804;134.252;2023-05-23T10:23:35;99924.72;;;18.68;53.11
46846;BME280;33947;46.804;134.252;2023-05-23T10:26:42;99928.41;;;18.41;53.91
46846;BME280;33947;46.804;134.252;2023-05-23T10:29:48;99910.59;;;18.00;54.82
46846;BME280;33947;46.804;134.252;2023-05-23T10:32:56;99936.13;;;17.92;55.57
46846;BME280;33947;46.804;134.252;2023-05-23T10:36:12;99933.34;;;17.94;55.52
46846;BME280;33947;46.804;134.252;2023-05-23T10:39:32;99927.63;;;17.86;55.89
46846;BME280;33947;46.804;134.252;2023-05-23T10:42:51;99940.31;;;17.84;55.58
46846;BME280;33947;46.804;134.252;2023-05-23T10:45:57;99942.03;;;17.85;55.26
46846;BME280;33947;46.804;134.252;2023-05-23T10:49:07;99933.38;;;17.67;55.64
46846;BME280;33947;46.804;134.252;2023-05-23T10:52:16;99953.69;;;17.71;55.43
46846;BME280;33947;46.804;134.252;2023-05-23T10:55:21;99953.50;;;17.46;56.39
46846;BME280;33947;46.804;134.252;2023-05-23T10:58:29;99944.53;;;17.18;57.69
46846;BME280;33947;46.804;134.252;2023-05-23T11:01:38;99941.38;;;16.97;58.45
46846;BME280;33947;46.804;134.252;2023-05-23T11:04:44;99925.69;;;16.62;58.74
46846;BME280;33947;46.804;134.252;2023-05-23T11:08:22;99920.41;;;16.60;59.39
46846;BME280;33947;46.804;134.252;2023-05-23T11:14:57;99962.06;;;16.52;59.19
46846;BME280;33947;46.804;134.252;2023-05-23T11:18:05;99933.31;;;16.39;58.86
46846;BME280;33947;46.804;134.252;2023-05-23T11:21:14;99978.72;;;16.57;58.78
46846;BME280;33947;46.804;134.252;2023-05-23T11:24:20;99943.19;;;16.53;57.54
46846;BME280;33947;46.804;134.252;2023-05-23T11:27:33;99960.16;;;16.68;57.22
46846;BME280;33947;46.804;134.252;2023-05-23T11:30:40;99978.84;;;16.70;57.30
46846;BME280;33947;46.804;134.252;2023-05-23T11:33:45;99954.56;;;16.42;57.59
46846;BME280;33947;46.804;134.252;2023-05-23T11:36:54;99976.81;;;16.73;56.83
46846;BME280;33947;46.804;134.252;2023-05-23T11:40:26;99982.94;;;16.75;57.16
46846;BME280;33947;46.804;134.252;2023-05-23T11:43:31;99982.63;;;16.51;57.34
46846;BME280;33947;46.804;134.252;2023-05-23T11:46:38;99984.34;;;16.38;58.33
46846;BME280;33947;46.804;134.252;2023-05-23T11:49:46;99985.00;;;16.41;57.92
46846;BME280;33947;46.804;134.252;2023-05-23T11:52:53;99953.34;;;16.03;58.47
46846;BME280;33947;46.804;134.252;2023-05-23T11:56:01;100005.28;;;16.31;58.70
46846;BME280;33947;46.804;134.252;2023-05-23T11:59:06;99983.22;;;16.11;58.57
46846;BME280;33947;46.804;134.252;2023-05-23T12:02:11;100003.50;;;16.31;57.71
46846;BME280;33947;46.804;134.252;2023-05-23T12:05:16;99998.78;;;16.35;57.52
46846;BME280;33947;46.804;134.252;2023-05-23T12:08:23;99953.19;;;16.20;56.92
46846;BME280;33947;46.804;134.252;2023-05-23T12:11:31;100001.59;;;16.48;56.73
46846;BME280;33947;46.804;134.252;2023-05-23T12:14:38;99999.38;;;16.40;56.78
46846;BME280;33947;46.804;134.252;2023-05-23T12:17:53;99962.50;;;16.29;55.82
46846;BME280;33947;46.804;134.252;2023-05-23T12:21:04;100003.06;;;16.54;55.75
46846;BME280;33947;46.804;134.252;2023-05-23T12:24:21;99995.78;;;16.56;55.43
46846;BME280;33947;46.804;134.252;2023-05-23T12:27:32;99994.75;;;16.73;54.89
46846;BME280;33947;46.804;134.252;2023-05-23T12:30:42;100009.84;;;16.59;55.43
46846;BME280;33947;46.804;134.252;2023-05-23T12:33:48;100007.28;;;16.27;56.52
46846;BME280;33947;46.804;134.252;2023-05-23T12:36:55;100006.84;;;15.88;58.25
46846;BME280;33947;46.804;134.252;2023-05-23T12:40:20;100005.47;;;15.81;58.07
46846;BME280;33947;46.804;134.252;2023-05-23T12:43:25;100004.88;;;15.76;57.96
46846;BME280;33947;46.804;134.252;2023-05-23T12:46:32;100003.47;;;16.01;56.73
46846;BME280;33947;46.804;134.252;2023-05-23T12:49:37;100008.03;;;15.83;57.49
46846;BME280;33947;46.804;134.252;2023-05-23T12:52:41;100010.66;;;15.52;58.23
46846;BME280;33947;46.804;134.252;2023-05-23T12:55:46;100002.03;;;15.47;58.61
46846;BME280;33947;46.804;134.252;2023-05-23T12:58:54;99988.09;;;15.08;59.50
46846;BME280;33947;46.804;134.252;2023-05-23T13:01:59;100010.22;;;15.28;59.09
46846;BME280;33947;46.804;134.252;2023-05-23T13:05:05;100013.50;;;15.33;58.93
46846;BME280;33947;46.804;134.252;2023-05-23T13:08:09;100006.91;;;15.07;59.33
46846;BME280;33947;46.804;134.252;2023-05-23T13:11:15;100023.13;;;15.03;59.64
46846;BME280;33947;46.804;134.252;2023-05-23T13:14:19;100013.13;;;15.23;58.69
46846;BME280;33947;46.804;134.252;2023-05-23T13:17:27;100005.47;;;14.83;60.07
46846;BME280;33947;46.804;134.252;2023-05-23T13:20:31;100017.59;;;14.73;60.57
46846;BME280;33947;46.804;134.252;2023-05-23T13:23:36;100019.22;;;14.58;61.96
46846;BME280;33947;46.804;134.252;2023-05-23T13:26:41;100022.03;;;14.90;60.15
46846;BME280;33947;46.804;134.252;2023-05-23T13:29:46;99998.47;;;14.63;60.56
46846;BME280;33947;46.804;134.252;2023-05-23T13:32:50;99972.25;;;14.01;61.93
46846;BME280;33947;46.804;134.252;2023-05-23T13:35:54;99979.06;;;14.59;60.42
46846;BME280;33947;46.804;134.252;2023-05-23T13:38:58;100000.41;;;14.95;59.38
46846;BME280;33947;46.804;134.252;2023-05-23T13:42:03;99966.34;;;14.47;59.86
46846;BME280;33947;46.804;134.252;2023-05-23T13:45:08;100002.63;;;14.86;59.91
46846;BME280;33947;46.804;134.252;2023-05-23T13:48:12;99996.75;;;14.80;59.60
46846;BME280;33947;46.804;134.252;2023-05-23T13:51:16;99997.72;;;14.95;59.40
46846;BME280;33947;46.804;134.252;2023-05-23T13:54:20;99982.44;;;14.63;59.96
46846;BME280;33947;46.804;134.252;2023-05-23T13:57:25;100000.81;;;14.87;59.46
46846;BME280;33947;46.804;134.252;2023-05-23T14:00:29;100004.75;;;14.97;59.20
46846;BME280;33947;46.804;134.252;2023-05-23T14:03:33;99985.69;;;15.03;58.79
46846;BME280;33947;46.804;134.252;2023-05-23T14:06:37;99966.22;;;14.84;58.55
46846;BME280;33947;46.804;134.252;2023-05-23T14:09:41;99985.06;;;14.98;58.84
46846;BME280;33947;46.804;134.252;2023-05-23T14:12:45;99947.69;;;14.63;58.80
46846;BME280;33947;46.804;134.252;2023-05-23T14:15:50;99975.72;;;14.89;58.63
46846;BME280;33947;46.804;134.252;2023-05-23T14:18:55;100014.50;;;14.81;59.43
46846;BME280;33947;46.804;134.252;2023-05-23T14:21:59;99977.72;;;14.68;59.30
46846;BME280;33947;46.804;134.252;2023-05-23T14:25:04;99993.53;;;15.07;58.44
46846;BME280;33947;46.804;134.252;2023-05-23T14:28:09;99977.56;;;15.05;58.30
46846;BME280;33947;46.804;134.252;2023-05-23T14:31:13;100016.84;;;15.21;58.57
46846;BME280;33947;46.804;134.252;2023-05-23T14:34:17;99999.66;;;15.09;58.90
46846;BME280;33947;46.804;134.252;2023-05-23T14:37:21;99990.59;;;15.11;58.19
46846;BME280;33947;46.804;134.252;2023-05-23T14:40:25;100010.56;;;15.22;58.32
46846;BME280;33947;46.804;134.252;2023-05-23T14:43:30;100003.38;;;15.22;58.26
46846;BME280;33947;46.804;134.252;2023-05-23T14:46:34;99993.97;;;15.15;58.16
46846;BME280;33947;46.804;134.252;2023-05-23T14:49:38;100013.41;;;15.18;58.30
46846;BME280;33947;46.804;134.252;2023-05-23T14:52:43;100014.63;;;15.29;58.22
46846;BME280;33947;46.804;134.252;2023-05-23T14:55:47;99961.25;;;14.94;58.31
46846;BME280;33947;46.804;134.252;2023-05-23T14:58:51;99987.88;;;15.45;57.34
46846;BME280;33947;46.804;134.252;2023-05-23T15:01:55;100012.72;;;15.47;57.44
46846;BME280;33947;46.804;134.252;2023-05-23T15:04:59;100021.19;;;15.39;57.75
46846;BME280;33947;46.804;134.252;2023-05-23T15:08:05;99998.91;;;15.23;58.18
46846;BME280;33947;46.804;134.252;2023-05-23T15:11:09;99987.84;;;15.13;58.14
46846;BME280;33947;46.804;134.252;2023-05-23T15:14:13;100009.94;;;15.32;57.72
46846;BME280;33947;46.804;134.252;2023-05-23T15:17:17;99976.44;;;15.09;57.74
46846;BME280;33947;46.804;134.252;2023-05-23T15:20:28;100007.53;;;15.28;57.76
46846;BME280;33947;46.804;134.252;2023-05-23T15:23:32;100021.84;;;15.11;58.41
46846;BME280;33947;46.804;134.252;2023-05-23T15:26:37;99999.78;;;14.89;58.82
46846;BME280;33947;46.804;134.252;2023-05-23T15:29:41;100009.09;;;14.82;58.93
46846;BME280;33947;46.804;134.252;2023-05-23T15:32:45;99998.72;;;14.58;59.60
46846;BME280;33947;46.804;134.252;2023-05-23T15:35:50;99940.50;;;14.30;59.13
46846;BME280;33947;46.804;134.252;2023-05-23T15:38:55;99987.13;;;14.58;59.24
46846;BME280;33947;46.804;134.252;2023-05-23T15:41:59;99974.22;;;14.50;58.98
46846;BME280;33947;46.804;134.252;2023-05-23T15:45:04;100014.19;;;14.69;59.42
46846;BME280;33947;46.804;134.252;2023-05-23T15:48:09;99947.25;;;14.37;58.78
46846;BME280;33947;46.804;134.252;2023-05-23T15:51:13;99994.22;;;14.76;58.83
46846;BME280;33947;46.804;134.252;2023-05-23T15:54:19;100010.81;;;14.83;58.94
46846;BME280;33947;46.804;134.252;2023-05-23T15:57:23;99971.53;;;14.50;59.08
46846;BME280;33947;46.804;134.252;2023-05-23T16:00:27;99991.31;;;14.64;59.07
46846;BME280;33947;46.804;134.252;2023-05-23T16:03:31;99990.63;;;14.60;59.23
46846;BME280;33947;46.804;134.252;2023-05-23T16:06:36;99973.50;;;14.46;58.97
46846;BME280;33947;46.804;134.252;2023-05-23T16:09:41;99979.53;;;14.50;59.18
46846;BME280;33947;46.804;134.252;2023-05-23T16:12:45;99969.03;;;14.47;59.05
46846;BME280;33947;46.804;134.252;2023-05-23T16:15:50;99992.56;;;14.74;58.42
46846;BME280;33947;46.804;134.252;2023-05-23T16:18:54;99988.03;;;14.58;58.88
46846;BME280;33947;46.804;134.252;2023-05-23T16:21:58;99975.69;;;14.38;59.13
46846;BME280;33947;46.804;134.252;2023-05-23T16:25:02;100000.44;;;14.59;59.14